Terminal Aerodrome Forecast
Issued by NWS

Home | Current Version | Previous Version | Text Only | Print | Product List | Glossary On
Versions: 1 2 3 4 5 6 7 8 9 10 11 12 13 14
000
FTUS45 KRIW 221700
TAFCOD
TAF
KCOD 221732Z 2218/2318 12007KT P6SM SCT100
     FM221900 15010KT P6SM SCT090
     FM230200 VRB05KT P6SM SKC
     FM231200 17006KT P6SM SCT100 BKN200
      AMD LTD TO CLD VIS AND WIND=

USA.gov is the U.S. government's official web portal to all federal, state and local government web resources and services.